createdAt,value
2018-04-11T00:01:20.336Z,62.60
2018-04-11T00:03:48.224Z,62.10
2018-04-11T00:06:16.933Z,62.00
2018-04-11T00:08:45.135Z,62.10
2018-04-11T00:11:13.161Z,62.10
2018-04-11T00:13:41.107Z,62.10
2018-04-11T00:16:09.824Z,62.30
2018-04-11T00:18:37.804Z,62.20
2018-04-11T00:21:05.796Z,62.20
2018-04-11T00:23:33.776Z,62.20
2018-04-11T00:26:01.789Z,62.30
2018-04-11T00:28:30.552Z,62.30
2018-04-11T00:30:58.832Z,62.30
2018-04-11T00:33:27.708Z,62.40
2018-04-11T00:35:55.881Z,62.30
2018-04-11T00:38:24.167Z,62.30
2018-04-11T00:40:52.334Z,62.40
2018-04-11T00:43:21.223Z,63.30
2018-04-11T00:45:49.399Z,62.40
2018-04-11T00:48:17.567Z,62.40
2018-04-11T00:50:45.741Z,62.40
2018-04-11T00:53:26.716Z,62.40
2018-04-11T00:55:55.007Z,62.40
2018-04-11T00:58:23.881Z,62.50
2018-04-11T01:00:51.869Z,62.50
2018-04-11T01:03:20.646Z,62.50
2018-04-11T01:05:48.688Z,62.50
2018-04-11T01:08:16.653Z,62.50
2018-04-11T01:10:45.409Z,62.50
2018-04-11T01:13:13.534Z,62.50
2018-04-11T01:15:48.207Z,62.70
2018-04-11T01:18:16.234Z,62.60
2018-04-11T01:20:44.409Z,62.60
2018-04-11T01:23:12.577Z,62.60
2018-04-11T01:25:40.753Z,62.60
2018-04-11T01:28:09.039Z,62.60
2018-04-11T01:30:37.204Z,63.30
2018-04-11T01:33:05.377Z,62.70
2018-04-11T01:35:33.548Z,62.70
2018-04-11T01:38:01.621Z,62.70
2018-04-11T01:40:29.905Z,62.80
2018-04-11T01:42:58.070Z,63.00
2018-04-11T01:45:28.902Z,62.90
2018-04-11T01:47:57.076Z,63.00
2018-04-11T01:50:25.250Z,62.90
2018-04-11T01:52:53.537Z,63.00
2018-04-11T01:55:21.814Z,63.00
2018-04-11T01:57:50.694Z,62.60
2018-04-11T02:00:18.880Z,63.10
2018-04-11T02:02:47.043Z,63.10
2018-04-11T02:05:15.329Z,62.50
2018-04-11T02:07:43.504Z,63.20
2018-04-11T02:10:12.496Z,63.30
2018-04-11T02:12:40.660Z,63.20
2018-04-11T02:15:08.945Z,63.20
2018-04-11T02:17:37.931Z,63.40
2018-04-11T02:20:06.001Z,63.40
2018-04-11T02:22:34.283Z,63.50
2018-04-11T02:25:02.445Z,63.40
2018-04-11T02:27:30.734Z,63.40
2018-04-11T02:29:59.727Z,63.60
2018-04-11T02:32:28.606Z,64.10
2018-04-11T02:34:56.785Z,63.50
2018-04-11T02:37:24.957Z,63.60
2018-04-11T02:39:53.849Z,63.10
2018-04-11T02:42:22.637Z,63.60
2018-04-11T02:44:50.961Z,64.40
2018-04-11T02:47:19.080Z,63.80
2018-04-11T02:49:48.292Z,63.90
2018-04-11T02:52:17.171Z,63.90
2018-04-11T02:54:45.967Z,63.90
2018-04-11T02:57:16.906Z,63.90
2018-04-11T02:59:45.784Z,64.10
2018-04-11T03:02:13.959Z,64.10
2018-04-11T03:04:42.137Z,64.10
2018-04-11T03:07:10.311Z,64.20
2018-04-11T03:09:38.488Z,64.30
2018-04-11T03:12:07.371Z,64.80
2018-04-11T03:14:35.967Z,64.40
2018-04-11T03:17:04.844Z,64.50
2018-04-11T03:19:33.031Z,64.50
2018-04-11T03:22:03.865Z,64.50
2018-04-11T03:24:33.080Z,65.40
2018-04-11T03:27:01.867Z,64.70
2018-04-11T03:29:30.574Z,64.70
2018-04-11T03:31:58.508Z,64.70
2018-04-11T03:34:27.310Z,64.30
2018-04-11T03:36:56.073Z,64.90
2018-04-11T03:39:23.999Z,64.90
2018-04-11T03:41:51.928Z,65.00
2018-04-11T03:44:20.619Z,65.00
2018-04-11T03:46:48.559Z,65.00
2018-04-11T03:49:16.517Z,65.00
2018-04-11T03:51:44.524Z,65.00
2018-04-11T03:54:13.270Z,65.00
2018-04-11T03:56:41.237Z,65.10
2018-04-11T03:59:09.158Z,65.10
2018-04-11T04:01:37.177Z,65.10
2018-04-11T04:04:05.149Z,65.10
2018-04-11T04:06:33.185Z,65.10
2018-04-11T04:09:01.111Z,65.00
2018-04-11T04:11:29.813Z,65.00
2018-04-11T04:14:09.479Z,65.00
2018-04-11T04:16:49.232Z,65.00
2018-04-11T04:19:24.176Z,65.00
2018-04-11T04:21:52.128Z,65.00
2018-04-11T04:24:20.160Z,65.00
2018-04-11T04:26:48.916Z,65.10
2018-04-11T04:29:16.824Z,65.80
2018-04-11T04:31:45.615Z,65.20
2018-04-11T04:34:13.513Z,65.10
2018-04-11T04:36:41.556Z,65.10
2018-04-11T04:39:10.308Z,65.30
2018-04-11T04:41:38.236Z,65.30
2018-04-11T04:44:06.188Z,65.30
2018-04-11T04:46:34.142Z,65.30
2018-04-11T04:49:02.206Z,65.30
2018-04-11T04:51:30.960Z,65.40
2018-04-11T04:53:58.988Z,65.50
2018-04-11T04:56:26.987Z,65.40
2018-04-11T04:58:54.939Z,65.40
2018-04-11T05:01:22.959Z,65.50
2018-04-11T05:03:50.994Z,65.60
2018-04-11T05:06:18.916Z,65.50
2018-04-11T05:08:47.716Z,65.60
2018-04-11T05:11:15.713Z,65.50
2018-04-11T05:13:43.731Z,65.60
2018-04-11T05:16:12.546Z,65.60
2018-04-11T05:18:40.544Z,65.50
2018-04-11T05:21:08.607Z,65.50
2018-04-11T05:23:36.653Z,65.60
2018-04-11T05:26:04.655Z,65.60
2018-04-11T05:28:32.651Z,65.60
2018-04-11T05:31:00.595Z,65.70
2018-04-11T05:33:28.613Z,65.70
2018-04-11T05:35:57.342Z,65.70
2018-04-11T05:38:25.324Z,65.70
2018-04-11T05:40:53.383Z,65.80
2018-04-11T05:43:21.335Z,65.80
2018-04-11T05:45:49.406Z,65.80
2018-04-11T05:48:17.373Z,65.80
2018-04-11T05:50:45.369Z,65.90
2018-04-11T05:53:13.352Z,65.90
2018-04-11T05:55:41.384Z,65.90
2018-04-11T05:58:09.432Z,65.90
2018-04-11T06:00:38.173Z,65.80
2018-04-11T06:03:06.094Z,65.80
2018-04-11T06:05:34.116Z,65.70
2018-04-11T06:08:02.106Z,65.90
2018-04-11T06:10:30.096Z,65.90
2018-04-11T06:12:58.781Z,65.80
2018-04-11T06:15:27.552Z,65.90
2018-04-11T06:17:55.455Z,65.90
2018-04-11T06:20:23.509Z,66.60
2018-04-11T06:22:52.187Z,65.80
2018-04-11T06:25:20.248Z,65.80
2018-04-11T06:27:48.217Z,65.80
2018-04-11T06:30:16.162Z,65.80
2018-04-11T06:32:44.063Z,65.80
2018-04-11T06:35:12.763Z,65.90
2018-04-11T06:37:40.759Z,65.70
2018-04-11T06:40:08.689Z,65.80
2018-04-11T06:42:37.515Z,65.70
2018-04-11T06:45:05.529Z,65.70
2018-04-11T06:47:33.455Z,65.50
2018-04-11T06:50:01.389Z,65.50
2018-04-11T06:52:29.383Z,65.40
2018-04-11T06:54:57.461Z,65.30
2018-04-11T06:57:25.543Z,65.20
2018-04-11T06:59:53.519Z,65.10
2018-04-11T07:02:21.448Z,64.90
2018-04-11T07:04:49.547Z,64.80
2018-04-11T07:07:17.559Z,64.80
2018-04-11T07:09:46.241Z,64.60
2018-04-11T07:12:14.180Z,64.60
2018-04-11T07:14:42.068Z,65.50
2018-04-11T07:17:10.104Z,64.40
2018-04-11T07:19:38.114Z,64.30
2018-04-11T07:22:06.249Z,64.10
2018-04-11T07:24:34.758Z,64.90
2018-04-11T07:27:02.770Z,64.10
2018-04-11T07:29:30.784Z,64.10
2018-04-11T07:31:58.802Z,64.00
2018-04-11T07:34:27.495Z,63.70
2018-04-11T07:36:55.449Z,63.80
2018-04-11T07:39:24.177Z,63.70
2018-04-11T07:41:52.128Z,63.70
2018-04-11T07:44:20.930Z,63.90
2018-04-11T07:46:48.873Z,63.80
2018-04-11T07:49:16.820Z,63.70
2018-04-11T07:51:45.634Z,63.80
2018-04-11T07:54:17.040Z,63.80
2018-04-11T07:56:48.515Z,63.60
2018-04-11T07:59:17.216Z,63.50
2018-04-11T08:01:45.154Z,63.40
2018-04-11T08:04:13.160Z,63.50
2018-04-11T08:06:41.618Z,63.30
2018-04-11T08:09:10.614Z,63.30
2018-04-11T08:11:39.331Z,63.20
2018-04-11T08:14:07.339Z,63.10
2018-04-11T08:16:35.366Z,62.90
2018-04-11T08:19:03.330Z,62.70
2018-04-11T08:21:31.321Z,62.60
2018-04-11T08:23:58.755Z,62.40
2018-04-11T08:26:26.747Z,62.10
2018-04-11T08:28:54.735Z,62.00
2018-04-11T08:31:22.804Z,61.80
2018-04-11T08:33:50.824Z,61.60
2018-04-11T08:36:19.541Z,61.10
2018-04-11T08:38:47.513Z,61.00
2018-04-11T08:41:15.450Z,60.80
2018-04-11T08:43:43.364Z,60.60
2018-04-11T08:46:11.723Z,60.40
2018-04-11T08:48:39.751Z,60.10
2018-04-11T08:51:08.533Z,60.00
2018-04-11T08:53:37.931Z,59.90
2018-04-11T08:56:06.149Z,59.80
2018-04-11T08:58:34.147Z,60.00
2018-04-11T09:01:02.180Z,59.90
2018-04-11T09:03:30.085Z,59.90
2018-04-11T09:05:58.069Z,59.80
2018-04-11T09:08:26.079Z,59.80
2018-04-11T09:10:54.042Z,59.80
2018-04-11T09:13:21.979Z,59.90
2018-04-11T09:15:49.921Z,59.90
2018-04-11T09:18:17.959Z,59.90
2018-04-11T09:20:45.937Z,60.60
2018-04-11T09:23:13.915Z,60.00
2018-04-11T09:25:41.926Z,60.10
2018-04-11T09:28:09.952Z,60.10
2018-04-11T09:30:37.919Z,60.20
2018-04-11T09:33:05.877Z,60.30
2018-04-11T09:35:33.944Z,60.30
2018-04-11T09:38:01.895Z,60.90
2018-04-11T09:40:30.671Z,59.60
2018-04-11T09:42:58.660Z,59.60
2018-04-11T09:45:27.348Z,59.30
2018-04-11T09:47:55.317Z,59.30
2018-04-11T09:50:23.265Z,59.10
2018-04-11T09:52:51.968Z,59.20
2018-04-11T09:55:20.768Z,59.30
2018-04-11T09:57:48.718Z,59.20
2018-04-11T10:00:17.544Z,59.00
2018-04-11T10:02:45.580Z,59.00
2018-04-11T10:05:14.302Z,58.70
2018-04-11T10:07:42.314Z,58.70
2018-04-11T10:10:10.251Z,58.70
2018-04-11T10:12:38.256Z,58.70
2018-04-11T10:15:06.180Z,58.80
2018-04-11T10:17:34.220Z,58.60
2018-04-11T10:20:02.148Z,58.40
2018-04-11T10:22:30.150Z,58.30
2018-04-11T10:24:58.937Z,58.10
2018-04-11T10:27:27.671Z,58.20
2018-04-11T10:29:55.680Z,58.10
2018-04-11T10:32:23.626Z,58.10
2018-04-11T10:34:52.188Z,58.00
2018-04-11T10:37:20.217Z,58.00
2018-04-11T10:39:49.018Z,57.70
2018-04-11T10:42:16.933Z,57.60
2018-04-11T10:44:44.926Z,57.20
2018-04-11T10:47:13.619Z,56.70
2018-04-11T10:49:42.278Z,56.50
2018-04-11T10:52:10.222Z,56.50
2018-04-11T10:54:38.296Z,56.40
2018-04-11T10:57:06.211Z,56.30
2018-04-11T10:59:34.987Z,56.20
2018-04-11T11:02:03.033Z,56.20
2018-04-11T11:04:30.965Z,56.10
2018-04-11T11:06:58.856Z,56.20
2018-04-11T11:09:26.803Z,56.30
2018-04-11T11:11:54.733Z,56.20
2018-04-11T11:14:22.628Z,56.10
2018-04-11T11:16:50.652Z,56.10
2018-04-11T11:19:23.609Z,56.10
2018-04-11T11:21:51.545Z,56.00
2018-04-11T11:24:20.321Z,55.80
2018-04-11T11:26:49.084Z,56.00
2018-04-11T11:29:16.992Z,56.00
2018-04-11T11:31:44.908Z,56.30
2018-04-11T11:34:12.987Z,56.20
2018-04-11T11:36:41.089Z,56.10
2018-04-11T11:39:09.825Z,56.20
2018-04-11T11:41:37.808Z,56.00
2018-04-11T11:44:05.750Z,56.10
2018-04-11T11:46:33.683Z,56.00
2018-04-11T11:49:02.500Z,56.00
2018-04-11T11:51:30.416Z,56.00
2018-04-11T11:53:58.344Z,56.00
2018-04-11T11:56:26.309Z,55.70
2018-04-11T11:58:54.239Z,55.50
2018-04-11T12:01:22.939Z,55.40
2018-04-11T12:03:50.840Z,55.40
2018-04-11T12:06:18.741Z,55.20
2018-04-11T12:08:46.752Z,55.20
2018-04-11T12:11:14.752Z,55.10
2018-04-11T12:13:42.698Z,55.20
2018-04-11T12:16:10.721Z,55.20
2018-04-11T12:18:38.631Z,55.30
2018-04-11T12:21:06.535Z,55.50
2018-04-11T12:23:34.725Z,55.40
2018-04-11T12:28:42.239Z,55.50
2018-04-11T12:31:10.314Z,55.60
2018-04-11T12:33:38.246Z,55.60
2018-04-11T12:36:06.284Z,56.10
2018-04-11T12:38:34.260Z,55.50
2018-04-11T12:41:02.201Z,55.50
2018-04-11T12:43:30.968Z,55.50
2018-04-11T12:45:58.892Z,55.50
2018-04-11T12:48:26.825Z,55.60
2018-04-11T12:50:55.613Z,55.80
2018-04-11T12:53:24.358Z,55.90
2018-04-11T12:55:52.389Z,55.80
2018-04-11T12:58:20.393Z,55.80
2018-04-11T13:00:48.421Z,55.70
2018-04-11T13:03:17.221Z,55.80
2018-04-11T13:05:45.256Z,55.80
2018-04-11T13:08:13.250Z,55.80
2018-04-11T13:10:41.213Z,55.90
2018-04-11T13:13:09.975Z,56.20
2018-04-11T13:15:37.940Z,56.10
2018-04-11T13:18:05.891Z,56.30
2018-04-11T13:20:33.796Z,56.70
2018-04-11T13:23:02.488Z,57.20
2018-04-11T13:25:31.228Z,57.20
2018-04-11T13:27:59.154Z,57.20
2018-04-11T13:30:27.109Z,57.40
2018-04-11T13:32:55.896Z,57.70
2018-04-11T13:35:24.569Z,57.90
2018-04-11T13:37:52.509Z,57.80
2018-04-11T13:40:20.517Z,58.10
2018-04-11T13:42:49.256Z,58.60
2018-04-11T13:45:17.179Z,58.50
2018-04-11T13:47:45.904Z,58.70
2018-04-11T13:50:13.849Z,58.70
2018-04-11T13:52:41.852Z,58.90
2018-04-11T13:55:09.884Z,58.90
2018-04-11T13:57:37.861Z,59.10
2018-04-11T14:00:06.240Z,59.20
2018-04-11T14:02:34.299Z,59.50
2018-04-11T14:05:02.309Z,59.60
2018-04-11T14:07:30.258Z,59.90
2018-04-11T14:09:58.356Z,60.20
2018-04-11T14:12:26.311Z,60.50
2018-04-11T14:14:54.248Z,60.30
2018-04-11T14:17:22.288Z,60.50
2018-04-11T14:19:50.286Z,60.40
2018-04-11T14:22:18.268Z,60.40
2018-04-11T14:24:46.306Z,60.50
2018-04-11T14:27:15.020Z,60.60
2018-04-11T14:29:43.031Z,60.60
2018-04-11T14:32:11.008Z,60.80
2018-04-11T14:34:38.963Z,60.80
2018-04-11T14:37:06.987Z,60.80
2018-04-11T14:39:35.048Z,61.00
2018-04-11T14:42:04.937Z,61.20
2018-04-11T14:44:33.120Z,61.00
2018-04-11T14:47:01.173Z,61.10
2018-04-11T14:49:29.338Z,61.30
2018-04-11T14:51:57.393Z,61.50
2018-04-11T14:54:25.434Z,61.50
2018-04-11T14:56:53.440Z,61.70
2018-04-11T14:59:21.506Z,61.90
2018-04-11T15:01:49.521Z,62.00
2018-04-11T15:04:18.245Z,62.30
2018-04-11T15:06:46.336Z,62.30
2018-04-11T15:09:14.344Z,62.50
2018-04-11T15:11:42.590Z,62.70
2018-04-11T15:14:10.766Z,63.00
2018-04-11T15:16:38.909Z,63.20
2018-04-11T15:19:07.073Z,63.30
2018-04-11T15:21:35.285Z,63.70
2018-04-11T15:24:03.524Z,63.80
2018-04-11T15:26:31.723Z,64.00
2018-04-11T15:28:59.976Z,64.20
2018-04-11T15:31:28.169Z,64.40
2018-04-11T15:33:56.366Z,64.60
2018-04-11T15:36:24.519Z,64.70
2018-04-11T15:38:52.827Z,65.00
2018-04-11T15:41:21.073Z,65.10
2018-04-11T15:43:49.321Z,65.40
2018-04-11T15:46:29.317Z,65.60
2018-04-11T15:48:57.857Z,65.80
2018-04-11T15:51:26.052Z,65.90
2018-04-11T15:53:54.237Z,66.20
2018-04-11T15:56:22.683Z,66.40
2018-04-11T15:58:51.098Z,66.60
2018-04-11T16:01:20.435Z,66.70
2018-04-11T16:03:49.960Z,67.10
2018-04-11T16:06:19.576Z,67.30
2018-04-11T16:08:49.040Z,67.40
2018-04-11T16:11:18.392Z,67.50
2018-04-11T16:13:47.255Z,67.50
2018-04-11T16:16:16.979Z,68.00
2018-04-11T16:18:47.504Z,68.00
2018-04-11T16:21:16.402Z,68.20
2018-04-11T16:23:46.117Z,68.50
2018-04-11T16:26:14.885Z,68.40
2018-04-11T16:28:44.504Z,68.90
2018-04-11T16:31:13.299Z,68.90
2018-04-11T16:33:42.790Z,69.20
2018-04-11T16:36:11.691Z,69.20
2018-04-11T16:38:41.177Z,69.40
2018-04-11T16:41:10.895Z,69.70
2018-04-11T16:43:40.235Z,69.80
2018-04-11T16:46:08.882Z,69.80
2018-04-11T16:48:38.462Z,70.10
2018-04-11T16:51:08.212Z,70.30
2018-04-11T16:53:36.993Z,70.30
2018-04-11T16:56:06.480Z,70.80
2018-04-11T16:58:36.320Z,70.90
2018-04-11T17:01:06.007Z,71.00
2018-04-11T17:03:35.303Z,71.20
2018-04-11T17:06:04.111Z,71.10
2018-04-11T17:08:33.721Z,71.40
2018-04-11T17:11:03.533Z,71.40
2018-04-11T17:13:32.311Z,71.40
2018-04-11T17:16:01.708Z,71.50
2018-04-11T17:18:30.388Z,71.60
2018-04-11T17:21:11.395Z,71.90
2018-04-11T17:23:52.964Z,71.90
2018-04-11T17:26:35.055Z,71.80
2018-04-11T17:29:17.162Z,72.00
2018-04-11T17:31:47.473Z,72.10
2018-04-11T17:34:16.265Z,72.10
2018-04-11T17:36:45.060Z,72.20
2018-04-11T17:39:13.952Z,72.30
2018-04-11T17:41:43.523Z,72.50
2018-04-11T17:44:13.173Z,72.50
2018-04-11T17:46:41.952Z,72.50
2018-04-11T17:49:12.682Z,72.50
2018-04-11T17:51:40.943Z,72.60
2018-04-11T17:54:10.573Z,72.80
2018-04-11T17:56:40.171Z,72.80
2018-04-11T17:59:09.075Z,72.80
2018-04-11T18:01:38.667Z,73.00
2018-04-11T18:04:07.621Z,73.00
2018-04-11T18:06:37.261Z,73.00
2018-04-11T18:09:06.993Z,73.10
2018-04-11T18:11:36.687Z,73.20
2018-04-11T18:14:06.291Z,73.30
2018-04-11T18:16:36.006Z,73.30
2018-04-11T18:19:05.620Z,73.50
2018-04-11T18:21:35.436Z,73.60
2018-04-11T18:24:05.654Z,73.50
2018-04-11T18:26:37.206Z,73.70
2018-04-11T18:29:06.108Z,73.70
2018-04-11T18:31:34.994Z,73.70
2018-04-11T18:34:03.847Z,73.70
2018-04-11T18:36:34.260Z,73.80
2018-04-11T18:39:03.188Z,73.80
2018-04-11T18:41:32.900Z,73.90
2018-04-11T18:44:01.803Z,73.90
2018-04-11T18:46:32.331Z,74.00
2018-04-11T18:49:02.028Z,74.10
2018-04-11T18:51:30.772Z,74.10
2018-04-11T18:54:00.535Z,74.10
2018-04-11T18:56:29.054Z,74.10
2018-04-11T18:58:57.892Z,74.10
2018-04-11T19:01:27.618Z,74.20
2018-04-11T19:03:57.543Z,74.40
2018-04-11T19:06:27.233Z,74.30
2018-04-11T19:08:56.728Z,74.50
2018-04-11T19:11:26.559Z,74.50
2018-04-11T19:13:57.069Z,74.50
2018-04-11T19:16:25.960Z,74.50
2018-04-11T19:18:54.735Z,74.60
2018-04-11T19:21:24.250Z,74.60
2018-04-11T19:23:53.878Z,74.70
2018-04-11T19:26:23.482Z,74.70
2018-04-11T19:28:53.190Z,74.80
2018-04-11T19:31:22.086Z,74.80
2018-04-11T19:33:51.671Z,74.80
2018-04-11T19:36:20.469Z,74.80
2018-04-11T19:38:49.257Z,74.80
2018-04-11T19:41:18.979Z,74.90
2018-04-11T19:43:47.754Z,74.90
2018-04-11T19:46:17.269Z,74.90
2018-04-11T19:48:45.613Z,74.90
2018-04-11T19:51:16.061Z,74.90
2018-04-11T19:53:44.739Z,74.90
2018-04-11T19:56:14.365Z,74.90
2018-04-11T19:58:43.860Z,75.00
2018-04-11T20:01:13.570Z,74.80
2018-04-11T20:03:43.253Z,74.90
2018-04-11T20:06:12.897Z,74.90
2018-04-11T20:08:42.578Z,74.90
2018-04-11T20:11:12.128Z,74.90
2018-04-11T20:13:41.532Z,74.90
2018-04-11T20:16:15.722Z,74.90
2018-04-11T20:18:45.122Z,74.90
2018-04-11T20:21:16.741Z,74.90
2018-04-11T20:23:45.362Z,75.00
2018-04-11T20:26:14.973Z,75.00
2018-04-11T20:28:44.474Z,75.00
2018-04-11T20:31:14.090Z,75.00
2018-04-11T20:33:43.564Z,75.00
2018-04-11T20:36:13.070Z,75.00
2018-04-11T20:38:42.387Z,75.10
2018-04-11T20:41:11.892Z,75.10
2018-04-11T20:43:41.606Z,75.10
2018-04-11T20:46:10.997Z,75.10
2018-04-11T20:48:40.514Z,75.10
2018-04-11T20:51:10.216Z,75.10
2018-04-11T20:53:39.736Z,75.10
2018-04-11T20:56:09.125Z,75.20
2018-04-11T20:58:38.642Z,75.20
2018-04-11T21:01:08.130Z,75.20
2018-04-11T21:03:36.713Z,75.20
2018-04-11T21:06:05.307Z,75.20
2018-04-11T21:08:34.499Z,75.20
2018-04-11T21:11:04.105Z,75.30
2018-04-11T21:13:33.593Z,75.30
2018-04-11T21:16:02.990Z,75.30
2018-04-11T21:18:32.194Z,75.40
2018-04-11T21:21:01.175Z,75.40
2018-04-11T21:23:29.953Z,74.90
2018-04-11T21:25:57.921Z,75.40
2018-04-11T21:28:25.890Z,75.40
2018-04-11T21:30:53.859Z,75.50
2018-04-11T21:33:21.930Z,75.50
2018-04-11T21:35:50.206Z,75.50
2018-04-11T21:38:18.172Z,75.50
2018-04-11T21:40:46.958Z,75.50
2018-04-11T21:43:15.144Z,75.50
2018-04-11T21:45:45.045Z,75.60
2018-04-11T21:48:13.015Z,75.50
2018-04-11T21:50:40.984Z,75.60
2018-04-11T21:53:08.953Z,75.60
2018-04-11T21:55:37.028Z,75.70
2018-04-11T21:58:04.993Z,75.60
2018-04-11T22:00:33.221Z,75.70
2018-04-11T22:03:01.351Z,75.70
2018-04-11T22:05:29.413Z,75.80
2018-04-11T22:07:57.380Z,75.80
2018-04-11T22:10:25.463Z,75.90
2018-04-11T22:12:53.533Z,75.80
2018-04-11T22:15:21.593Z,75.80
2018-04-11T22:17:49.570Z,75.90
2018-04-11T22:20:18.464Z,75.90
2018-04-11T22:22:46.424Z,76.00
2018-04-11T22:25:14.503Z,76.00
2018-04-11T22:27:42.563Z,76.10
2018-04-11T22:30:10.737Z,76.20
2018-04-11T22:32:38.910Z,76.20
2018-04-11T22:35:07.711Z,77.00
2018-04-11T22:37:36.601Z,76.20
2018-04-11T22:40:04.762Z,76.30
2018-04-11T22:42:33.056Z,76.30
2018-04-11T22:45:01.330Z,76.30
2018-04-11T22:47:30.322Z,76.70
2018-04-11T22:49:58.595Z,76.40
2018-04-11T22:52:26.871Z,76.40
2018-04-11T22:54:55.033Z,76.40
2018-04-11T22:57:25.872Z,76.40
2018-04-11T22:59:54.042Z,76.50
2018-04-11T23:02:22.333Z,76.50
2018-04-11T23:04:50.495Z,76.60
2018-04-11T23:07:18.563Z,76.60
2018-04-11T23:09:46.739Z,76.60
2018-04-11T23:12:14.911Z,76.70
2018-04-11T23:14:43.303Z,76.70
2018-04-11T23:17:12.181Z,76.80
2018-04-11T23:19:40.467Z,76.80
2018-04-11T23:22:09.258Z,76.70
2018-04-11T23:24:38.349Z,76.90
2018-04-11T23:27:06.511Z,76.80
2018-04-11T23:29:34.697Z,77.20
2018-04-11T23:32:02.866Z,76.90
2018-04-11T23:34:31.037Z,77.60
2018-04-11T23:36:59.211Z,76.90
2018-04-11T23:39:27.493Z,77.00
2018-04-11T23:41:55.760Z,77.10
2018-04-11T23:44:23.829Z,77.90
2018-04-11T23:46:52.005Z,77.10
2018-04-11T23:49:20.176Z,77.10
2018-04-11T23:51:48.247Z,77.10
2018-04-11T23:54:16.420Z,77.10
2018-04-11T23:56:45.313Z,77.10
2018-04-11T23:59:13.483Z,77.10
